sensor_id;sensor_type;location;lat;lon;timestamp;P1;durP1;ratioP1;P2;durP2;ratioP2
10150;SDS011;5116;52.318;4.644;2022-08-03T00:01:27;0.90;;;0.90;;
10150;SDS011;5116;52.318;4.644;2022-08-03T00:03:55;0.90;;;0.90;;
10150;SDS011;5116;52.318;4.644;2022-08-03T00:06:22;0.90;;;0.90;;
10150;SDS011;5116;52.318;4.644;2022-08-03T00:08:49;0.90;;;0.90;;
10150;SDS011;5116;52.318;4.644;2022-08-03T00:11:17;1.13;;;1.03;;
10150;SDS011;5116;52.318;4.644;2022-08-03T00:13:44;0.80;;;0.80;;
10150;SDS011;5116;52.318;4.644;2022-08-03T00:16:11;1.47;;;1.10;;
10150;SDS011;5116;52.318;4.644;2022-08-03T00:18:39;0.90;;;0.90;;
10150;SDS011;5116;52.318;4.644;2022-08-03T00:21:06;0.87;;;0.87;;
10150;SDS011;5116;52.318;4.644;2022-08-03T00:23:34;1.00;;;0.80;;
10150;SDS011;5116;52.318;4.644;2022-08-03T00:26:18;1.03;;;0.90;;
10150;SDS011;5116;52.318;4.644;2022-08-03T00:28:45;0.90;;;0.90;;
10150;SDS011;5116;52.318;4.644;2022-08-03T00:31:12;0.97;;;0.97;;
10150;SDS011;5116;52.318;4.644;2022-08-03T00:33:40;1.83;;;0.80;;
10150;SDS011;5116;52.318;4.644;2022-08-03T00:36:26;1.53;;;1.13;;
10150;SDS011;5116;52.318;4.644;2022-08-03T00:38:54;2.30;;;1.20;;
10150;SDS011;5116;52.318;4.644;2022-08-03T00:41:22;1.13;;;1.00;;
10150;SDS011;5116;52.318;4.644;2022-08-03T00:43:49;1.67;;;1.00;;
10150;SDS011;5116;52.318;4.644;2022-08-03T00:46:17;1.70;;;0.90;;
10150;SDS011;5116;52.318;4.644;2022-08-03T00:48:48;1.10;;;1.00;;
10150;SDS011;5116;52.318;4.644;2022-08-03T00:51:15;1.73;;;1.10;;
10150;SDS011;5116;52.318;4.644;2022-08-03T00:53:43;1.13;;;0.90;;
10150;SDS011;5116;52.318;4.644;2022-08-03T00:56:14;1.17;;;1.00;;
10150;SDS011;5116;52.318;4.644;2022-08-03T00:58:42;1.83;;;0.93;;
10150;SDS011;5116;52.318;4.644;2022-08-03T01:01:10;1.20;;;1.10;;
10150;SDS011;5116;52.318;4.644;2022-08-03T01:03:38;1.17;;;0.90;;
10150;SDS011;5116;52.318;4.644;2022-08-03T01:06:06;1.07;;;1.07;;
10150;SDS011;5116;52.318;4.644;2022-08-03T01:08:40;1.60;;;1.00;;
10150;SDS011;5116;52.318;4.644;2022-08-03T01:11:18;0.80;;;0.80;;
10150;SDS011;5116;52.318;4.644;2022-08-03T01:13:56;1.60;;;1.30;;
10150;SDS011;5116;52.318;4.644;2022-08-03T01:16:50;1.00;;;0.90;;
10150;SDS011;5116;52.318;4.644;2022-08-03T01:27:08;2.83;;;1.17;;
10150;SDS011;5116;52.318;4.644;2022-08-03T01:29:48;0.83;;;0.83;;
10150;SDS011;5116;52.318;4.644;2022-08-03T01:32:21;1.00;;;1.00;;
10150;SDS011;5116;52.318;4.644;2022-08-03T01:35:11;1.00;;;1.00;;
10150;SDS011;5116;52.318;4.644;2022-08-03T01:37:44;0.93;;;0.90;;
10150;SDS011;5116;52.318;4.644;2022-08-03T01:40:13;1.70;;;1.07;;
10150;SDS011;5116;52.318;4.644;2022-08-03T01:42:42;1.20;;;1.10;;
10150;SDS011;5116;52.318;4.644;2022-08-03T01:45:11;1.03;;;1.03;;
10150;SDS011;5116;52.318;4.644;2022-08-03T01:47:39;3.40;;;1.27;;
10150;SDS011;5116;52.318;4.644;2022-08-03T01:50:07;2.43;;;1.03;;
10150;SDS011;5116;52.318;4.644;2022-08-03T01:52:36;1.10;;;1.00;;
10150;SDS011;5116;52.318;4.644;2022-08-03T01:55:04;1.90;;;0.90;;
10150;SDS011;5116;52.318;4.644;2022-08-03T01:57:31;3.80;;;1.20;;
10150;SDS011;5116;52.318;4.644;2022-08-03T02:00:19;1.00;;;0.83;;
10150;SDS011;5116;52.318;4.644;2022-08-03T02:02:48;1.87;;;1.00;;
10150;SDS011;5116;52.318;4.644;2022-08-03T02:05:15;2.70;;;1.13;;
10150;SDS011;5116;52.318;4.644;2022-08-03T02:07:45;1.40;;;1.30;;
10150;SDS011;5116;52.318;4.644;2022-08-03T02:10:14;2.10;;;1.30;;
10150;SDS011;5116;52.318;4.644;2022-08-03T02:13:00;1.23;;;0.90;;
10150;SDS011;5116;52.318;4.644;2022-08-03T02:15:28;1.57;;;1.20;;
10150;SDS011;5116;52.318;4.644;2022-08-03T02:17:56;1.73;;;0.90;;
10150;SDS011;5116;52.318;4.644;2022-08-03T02:20:24;0.73;;;0.73;;
10150;SDS011;5116;52.318;4.644;2022-08-03T02:22:53;2.30;;;1.30;;
10150;SDS011;5116;52.318;4.644;2022-08-03T02:25:20;0.93;;;0.93;;
10150;SDS011;5116;52.318;4.644;2022-08-03T02:27:51;1.03;;;0.97;;
10150;SDS011;5116;52.318;4.644;2022-08-03T02:30:21;1.13;;;1.03;;
10150;SDS011;5116;52.318;4.644;2022-08-03T02:32:51;1.03;;;0.90;;
10150;SDS011;5116;52.318;4.644;2022-08-03T02:35:21;1.00;;;0.83;;
10150;SDS011;5116;52.318;4.644;2022-08-03T02:37:51;1.20;;;1.10;;
10150;SDS011;5116;52.318;4.644;2022-08-03T02:40:19;0.90;;;0.90;;
10150;SDS011;5116;52.318;4.644;2022-08-03T02:42:48;1.17;;;0.80;;
10150;SDS011;5116;52.318;4.644;2022-08-03T02:45:17;1.07;;;1.00;;
10150;SDS011;5116;52.318;4.644;2022-08-03T02:47:46;1.10;;;1.00;;
10150;SDS011;5116;52.318;4.644;2022-08-03T02:50:20;1.00;;;1.00;;
10150;SDS011;5116;52.318;4.644;2022-08-03T02:52:47;1.07;;;0.90;;
10150;SDS011;5116;52.318;4.644;2022-08-03T02:55:16;1.00;;;1.00;;
10150;SDS011;5116;52.318;4.644;2022-08-03T02:57:45;0.80;;;0.80;;
10150;SDS011;5116;52.318;4.644;2022-08-03T03:00:13;0.97;;;0.97;;
10150;SDS011;5116;52.318;4.644;2022-08-03T03:02:53;3.00;;;1.40;;
10150;SDS011;5116;52.318;4.644;2022-08-03T03:05:22;2.47;;;1.10;;
10150;SDS011;5116;52.318;4.644;2022-08-03T03:08:13;1.57;;;1.00;;
10150;SDS011;5116;52.318;4.644;2022-08-03T03:10:44;1.43;;;1.00;;
10150;SDS011;5116;52.318;4.644;2022-08-03T03:13:13;1.30;;;1.20;;
10150;SDS011;5116;52.318;4.644;2022-08-03T03:15:41;1.40;;;1.30;;
10150;SDS011;5116;52.318;4.644;2022-08-03T03:18:09;2.60;;;0.90;;
10150;SDS011;5116;52.318;4.644;2022-08-03T03:20:37;1.20;;;1.10;;
10150;SDS011;5116;52.318;4.644;2022-08-03T03:23:06;1.00;;;0.90;;
10150;SDS011;5116;52.318;4.644;2022-08-03T03:25:35;1.43;;;1.00;;
10150;SDS011;5116;52.318;4.644;2022-08-03T03:28:02;1.37;;;1.27;;
10150;SDS011;5116;52.318;4.644;2022-08-03T03:30:32;1.03;;;1.03;;
10150;SDS011;5116;52.318;4.644;2022-08-03T03:33:00;1.27;;;0.97;;
10150;SDS011;5116;52.318;4.644;2022-08-03T03:35:28;1.40;;;1.30;;
10150;SDS011;5116;52.318;4.644;2022-08-03T03:37:55;3.00;;;1.30;;
10150;SDS011;5116;52.318;4.644;2022-08-03T03:40:23;1.23;;;1.10;;
10150;SDS011;5116;52.318;4.644;2022-08-03T03:42:50;2.30;;;0.97;;
10150;SDS011;5116;52.318;4.644;2022-08-03T03:45:18;1.30;;;1.20;;
10150;SDS011;5116;52.318;4.644;2022-08-03T03:47:46;2.63;;;1.17;;
10150;SDS011;5116;52.318;4.644;2022-08-03T03:50:14;2.10;;;1.00;;
10150;SDS011;5116;52.318;4.644;2022-08-03T03:52:41;1.50;;;1.23;;
10150;SDS011;5116;52.318;4.644;2022-08-03T03:55:09;2.17;;;1.10;;
10150;SDS011;5116;52.318;4.644;2022-08-03T03:57:36;2.60;;;1.23;;
10150;SDS011;5116;52.318;4.644;2022-08-03T04:00:04;3.30;;;1.00;;
10150;SDS011;5116;52.318;4.644;2022-08-03T04:02:31;2.37;;;1.03;;
10150;SDS011;5116;52.318;4.644;2022-08-03T04:04:59;1.33;;;1.23;;
10150;SDS011;5116;52.318;4.644;2022-08-03T04:07:46;1.00;;;1.00;;
10150;SDS011;5116;52.318;4.644;2022-08-03T04:10:35;1.47;;;1.13;;
10150;SDS011;5116;52.318;4.644;2022-08-03T04:16:27;1.13;;;1.03;;
10150;SDS011;5116;52.318;4.644;2022-08-03T04:18:57;1.43;;;1.10;;
10150;SDS011;5116;52.318;4.644;2022-08-03T04:21:27;2.53;;;1.10;;
10150;SDS011;5116;52.318;4.644;2022-08-03T04:23:55;1.13;;;0.90;;
10150;SDS011;5116;52.318;4.644;2022-08-03T04:26:25;1.07;;;0.97;;
10150;SDS011;5116;52.318;4.644;2022-08-03T04:28:53;1.50;;;1.10;;
10150;SDS011;5116;52.318;4.644;2022-08-03T04:31:21;2.13;;;1.10;;
10150;SDS011;5116;52.318;4.644;2022-08-03T04:33:49;0.90;;;0.90;;
10150;SDS011;5116;52.318;4.644;2022-08-03T04:36:18;2.03;;;1.10;;
10150;SDS011;5116;52.318;4.644;2022-08-03T04:38:59;1.50;;;1.20;;
10150;SDS011;5116;52.318;4.644;2022-08-03T04:41:29;1.50;;;1.40;;
10150;SDS011;5116;52.318;4.644;2022-08-03T04:43:57;1.20;;;1.03;;
10150;SDS011;5116;52.318;4.644;2022-08-03T04:46:26;1.30;;;1.00;;
10150;SDS011;5116;52.318;4.644;2022-08-03T04:48:54;1.57;;;1.17;;
10150;SDS011;5116;52.318;4.644;2022-08-03T04:51:22;1.10;;;1.10;;
10150;SDS011;5116;52.318;4.644;2022-08-03T04:53:50;2.73;;;1.17;;
10150;SDS011;5116;52.318;4.644;2022-08-03T04:56:18;1.37;;;1.27;;
10150;SDS011;5116;52.318;4.644;2022-08-03T04:58:45;2.07;;;1.67;;
10150;SDS011;5116;52.318;4.644;2022-08-03T05:01:12;3.73;;;1.40;;
10150;SDS011;5116;52.318;4.644;2022-08-03T05:03:40;1.20;;;1.10;;
10150;SDS011;5116;52.318;4.644;2022-08-03T05:06:08;1.40;;;1.30;;
10150;SDS011;5116;52.318;4.644;2022-08-03T05:08:37;2.33;;;1.57;;
10150;SDS011;5116;52.318;4.644;2022-08-03T05:11:14;4.67;;;1.50;;
10150;SDS011;5116;52.318;4.644;2022-08-03T05:13:42;1.83;;;1.40;;
10150;SDS011;5116;52.318;4.644;2022-08-03T05:16:09;2.07;;;1.30;;
10150;SDS011;5116;52.318;4.644;2022-08-03T05:18:37;2.20;;;1.40;;
10150;SDS011;5116;52.318;4.644;2022-08-03T05:21:05;2.67;;;1.10;;
10150;SDS011;5116;52.318;4.644;2022-08-03T05:23:32;1.37;;;1.20;;
10150;SDS011;5116;52.318;4.644;2022-08-03T05:26:00;2.67;;;1.40;;
10150;SDS011;5116;52.318;4.644;2022-08-03T05:28:28;1.17;;;1.13;;
10150;SDS011;5116;52.318;4.644;2022-08-03T05:30:56;1.20;;;1.03;;
10150;SDS011;5116;52.318;4.644;2022-08-03T05:33:23;1.60;;;1.50;;
10150;SDS011;5116;52.318;4.644;2022-08-03T05:35:50;3.20;;;1.47;;
10150;SDS011;5116;52.318;4.644;2022-08-03T05:38:29;2.95;;;1.40;;
10150;SDS011;5116;52.318;4.644;2022-08-03T05:41:01;1.30;;;1.20;;
10150;SDS011;5116;52.318;4.644;2022-08-03T05:43:48;1.30;;;1.20;;
10150;SDS011;5116;52.318;4.644;2022-08-03T05:46:16;1.40;;;1.30;;
10150;SDS011;5116;52.318;4.644;2022-08-03T05:48:43;1.47;;;1.30;;
10150;SDS011;5116;52.318;4.644;2022-08-03T05:51:11;1.80;;;1.33;;
10150;SDS011;5116;52.318;4.644;2022-08-03T05:53:39;1.50;;;1.40;;
10150;SDS011;5116;52.318;4.644;2022-08-03T05:56:07;1.57;;;1.30;;
10150;SDS011;5116;52.318;4.644;2022-08-03T05:58:44;3.40;;;1.77;;
10150;SDS011;5116;52.318;4.644;2022-08-03T06:01:13;2.03;;;1.53;;
10150;SDS011;5116;52.318;4.644;2022-08-03T06:03:41;2.17;;;1.50;;
10150;SDS011;5116;52.318;4.644;2022-08-03T06:06:08;1.47;;;1.17;;
10150;SDS011;5116;52.318;4.644;2022-08-03T06:08:37;1.80;;;1.60;;
10150;SDS011;5116;52.318;4.644;2022-08-03T06:11:04;1.90;;;1.20;;
10150;SDS011;5116;52.318;4.644;2022-08-03T06:13:32;1.47;;;1.37;;
10150;SDS011;5116;52.318;4.644;2022-08-03T06:15:59;4.33;;;1.70;;
10150;SDS011;5116;52.318;4.644;2022-08-03T06:18:27;4.17;;;1.70;;
10150;SDS011;5116;52.318;4.644;2022-08-03T06:20:54;1.80;;;1.50;;
10150;SDS011;5116;52.318;4.644;2022-08-03T06:23:22;3.20;;;1.57;;
10150;SDS011;5116;52.318;4.644;2022-08-03T06:26:09;2.70;;;1.30;;
10150;SDS011;5116;52.318;4.644;2022-08-03T06:28:39;5.43;;;1.63;;
10150;SDS011;5116;52.318;4.644;2022-08-03T06:31:19;4.07;;;1.40;;
10150;SDS011;5116;52.318;4.644;2022-08-03T06:33:46;1.30;;;1.20;;
10150;SDS011;5116;52.318;4.644;2022-08-03T06:36:33;4.83;;;1.63;;
10150;SDS011;5116;52.318;4.644;2022-08-03T06:39:01;1.33;;;1.23;;
10150;SDS011;5116;52.318;4.644;2022-08-03T06:41:29;2.20;;;1.30;;
10150;SDS011;5116;52.318;4.644;2022-08-03T06:44:06;2.47;;;1.50;;
10150;SDS011;5116;52.318;4.644;2022-08-03T06:46:35;5.90;;;2.33;;
10150;SDS011;5116;52.318;4.644;2022-08-03T06:49:03;2.00;;;1.50;;
10150;SDS011;5116;52.318;4.644;2022-08-03T06:51:30;3.70;;;1.70;;
10150;SDS011;5116;52.318;4.644;2022-08-03T06:54:17;2.60;;;1.77;;
10150;SDS011;5116;52.318;4.644;2022-08-03T06:56:47;2.80;;;1.43;;
10150;SDS011;5116;52.318;4.644;2022-08-03T06:59:14;1.93;;;1.70;;
10150;SDS011;5116;52.318;4.644;2022-08-03T07:02:02;2.97;;;1.57;;
10150;SDS011;5116;52.318;4.644;2022-08-03T07:04:29;2.73;;;1.60;;
10150;SDS011;5116;52.318;4.644;2022-08-03T07:06:57;2.43;;;1.73;;
10150;SDS011;5116;52.318;4.644;2022-08-03T07:09:24;1.67;;;1.30;;
10150;SDS011;5116;52.318;4.644;2022-08-03T07:11:52;3.73;;;1.67;;
10150;SDS011;5116;52.318;4.644;2022-08-03T07:14:20;2.40;;;1.60;;
10150;SDS011;5116;52.318;4.644;2022-08-03T07:16:48;1.80;;;1.57;;
10150;SDS011;5116;52.318;4.644;2022-08-03T07:19:15;1.40;;;1.30;;
10150;SDS011;5116;52.318;4.644;2022-08-03T07:21:43;2.30;;;1.30;;
10150;SDS011;5116;52.318;4.644;2022-08-03T07:24:11;1.90;;;1.57;;
10150;SDS011;5116;52.318;4.644;2022-08-03T07:26:38;1.57;;;1.37;;
10150;SDS011;5116;52.318;4.644;2022-08-03T07:29:05;3.27;;;1.50;;
10150;SDS011;5116;52.318;4.644;2022-08-03T07:31:40;3.30;;;1.70;;
10150;SDS011;5116;52.318;4.644;2022-08-03T07:34:08;4.77;;;1.80;;
10150;SDS011;5116;52.318;4.644;2022-08-03T07:36:35;2.87;;;1.80;;
10150;SDS011;5116;52.318;4.644;2022-08-03T07:39:03;4.23;;;2.00;;
10150;SDS011;5116;52.318;4.644;2022-08-03T07:41:43;4.03;;;2.30;;
10150;SDS011;5116;52.318;4.644;2022-08-03T07:44:10;3.00;;;1.67;;
10150;SDS011;5116;52.318;4.644;2022-08-03T07:46:38;6.50;;;1.67;;
10150;SDS011;5116;52.318;4.644;2022-08-03T07:49:05;3.03;;;2.10;;
10150;SDS011;5116;52.318;4.644;2022-08-03T07:51:32;4.63;;;1.77;;
10150;SDS011;5116;52.318;4.644;2022-08-03T07:54:00;3.00;;;1.50;;
10150;SDS011;5116;52.318;4.644;2022-08-03T07:56:28;3.00;;;1.67;;
10150;SDS011;5116;52.318;4.644;2022-08-03T07:58:55;3.57;;;1.90;;
10150;SDS011;5116;52.318;4.644;2022-08-03T08:01:22;2.27;;;1.77;;
10150;SDS011;5116;52.318;4.644;2022-08-03T08:03:50;1.60;;;1.50;;
10150;SDS011;5116;52.318;4.644;2022-08-03T08:06:19;4.27;;;2.10;;
10150;SDS011;5116;52.318;4.644;2022-08-03T08:08:47;4.20;;;2.10;;
10150;SDS011;5116;52.318;4.644;2022-08-03T08:11:14;3.33;;;2.20;;
10150;SDS011;5116;52.318;4.644;2022-08-03T08:13:41;3.10;;;2.00;;
10150;SDS011;5116;52.318;4.644;2022-08-03T08:16:09;4.13;;;2.20;;
10150;SDS011;5116;52.318;4.644;2022-08-03T08:18:36;2.60;;;2.40;;
10150;SDS011;5116;52.318;4.644;2022-08-03T08:21:04;4.10;;;2.20;;
10150;SDS011;5116;52.318;4.644;2022-08-03T08:23:34;4.57;;;2.40;;
10150;SDS011;5116;52.318;4.644;2022-08-03T08:26:09;2.00;;;1.90;;
10150;SDS011;5116;52.318;4.644;2022-08-03T08:28:36;2.20;;;1.90;;
10150;SDS011;5116;52.318;4.644;2022-08-03T08:31:04;2.40;;;2.20;;
10150;SDS011;5116;52.318;4.644;2022-08-03T08:33:32;2.53;;;2.33;;
10150;SDS011;5116;52.318;4.644;2022-08-03T08:36:20;2.77;;;2.33;;
10150;SDS011;5116;52.318;4.644;2022-08-03T08:38:47;3.70;;;1.83;;
10150;SDS011;5116;52.318;4.644;2022-08-03T08:41:15;1.93;;;1.83;;
10150;SDS011;5116;52.318;4.644;2022-08-03T08:43:42;1.90;;;1.80;;
10150;SDS011;5116;52.318;4.644;2022-08-03T08:46:10;1.93;;;1.73;;
10150;SDS011;5116;52.318;4.644;2022-08-03T08:48:49;1.87;;;1.70;;
10150;SDS011;5116;52.318;4.644;2022-08-03T08:51:18;4.20;;;1.87;;
10150;SDS011;5116;52.318;4.644;2022-08-03T08:53:47;2.43;;;1.90;;
10150;SDS011;5116;52.318;4.644;2022-08-03T08:56:15;2.70;;;1.90;;
10150;SDS011;5116;52.318;4.644;2022-08-03T08:58:47;4.43;;;2.00;;
10150;SDS011;5116;52.318;4.644;2022-08-03T09:01:16;2.47;;;2.17;;
10150;SDS011;5116;52.318;4.644;2022-08-03T09:03:45;1.87;;;1.73;;
10150;SDS011;5116;52.318;4.644;2022-08-03T09:06:12;1.63;;;1.53;;
10150;SDS011;5116;52.318;4.644;2022-08-03T09:08:40;4.37;;;1.97;;
10150;SDS011;5116;52.318;4.644;2022-08-03T09:11:08;3.57;;;2.13;;
10150;SDS011;5116;52.318;4.644;2022-08-03T09:13:37;1.83;;;1.67;;
10150;SDS011;5116;52.318;4.644;2022-08-03T09:16:07;2.00;;;1.73;;
10150;SDS011;5116;52.318;4.644;2022-08-03T09:18:36;2.50;;;1.90;;
10150;SDS011;5116;52.318;4.644;2022-08-03T09:21:14;2.00;;;1.80;;
10150;SDS011;5116;52.318;4.644;2022-08-03T09:23:58;2.00;;;1.77;;
10150;SDS011;5116;52.318;4.644;2022-08-03T09:26:30;1.77;;;1.67;;
10150;SDS011;5116;52.318;4.644;2022-08-03T09:29:01;2.57;;;1.67;;
10150;SDS011;5116;52.318;4.644;2022-08-03T09:31:39;1.97;;;1.80;;
10150;SDS011;5116;52.318;4.644;2022-08-03T09:34:10;3.20;;;1.77;;
10150;SDS011;5116;52.318;4.644;2022-08-03T09:39:12;4.57;;;2.20;;
10150;SDS011;5116;52.318;4.644;2022-08-03T09:41:40;2.10;;;1.90;;
10150;SDS011;5116;52.318;4.644;2022-08-03T09:44:08;2.20;;;1.43;;
10150;SDS011;5116;52.318;4.644;2022-08-03T09:46:54;1.97;;;1.50;;
10150;SDS011;5116;52.318;4.644;2022-08-03T09:49:22;3.67;;;2.07;;
10150;SDS011;5116;52.318;4.644;2022-08-03T09:51:51;4.23;;;2.60;;
10150;SDS011;5116;52.318;4.644;2022-08-03T09:54:38;5.17;;;1.90;;
10150;SDS011;5116;52.318;4.644;2022-08-03T09:57:06;2.17;;;1.90;;
10150;SDS011;5116;52.318;4.644;2022-08-03T09:59:33;4.67;;;1.73;;
10150;SDS011;5116;52.318;4.644;2022-08-03T10:02:04;1.50;;;1.40;;
10150;SDS011;5116;52.318;4.644;2022-08-03T10:04:31;5.50;;;2.00;;
10150;SDS011;5116;52.318;4.644;2022-08-03T10:07:06;2.77;;;1.80;;
10150;SDS011;5116;52.318;4.644;2022-08-03T10:09:35;1.63;;;1.53;;
10150;SDS011;5116;52.318;4.644;2022-08-03T10:12:07;1.40;;;1.30;;
10150;SDS011;5116;52.318;4.644;2022-08-03T10:14:35;1.80;;;1.70;;
10150;SDS011;5116;52.318;4.644;2022-08-03T10:17:03;4.60;;;1.60;;
10150;SDS011;5116;52.318;4.644;2022-08-03T10:19:30;2.87;;;1.73;;
10150;SDS011;5116;52.318;4.644;2022-08-03T10:22:01;2.07;;;1.60;;
10150;SDS011;5116;52.318;4.644;2022-08-03T10:24:29;1.73;;;1.50;;
10150;SDS011;5116;52.318;4.644;2022-08-03T10:27:04;1.90;;;1.70;;
10150;SDS011;5116;52.318;4.644;2022-08-03T10:29:38;2.20;;;1.73;;
10150;SDS011;5116;52.318;4.644;2022-08-03T10:32:09;1.70;;;1.60;;
10150;SDS011;5116;52.318;4.644;2022-08-03T10:34:40;2.30;;;1.53;;
10150;SDS011;5116;52.318;4.644;2022-08-03T10:37:10;1.60;;;1.50;;
10150;SDS011;5116;52.318;4.644;2022-08-03T10:39:38;1.97;;;1.87;;
10150;SDS011;5116;52.318;4.644;2022-08-03T10:42:22;3.70;;;2.33;;
10150;SDS011;5116;52.318;4.644;2022-08-03T10:44:53;3.20;;;1.77;;
10150;SDS011;5116;52.318;4.644;2022-08-03T10:47:22;2.63;;;1.80;;
10150;SDS011;5116;52.318;4.644;2022-08-03T10:49:49;1.97;;;1.80;;
10150;SDS011;5116;52.318;4.644;2022-08-03T10:52:17;2.00;;;1.83;;
10150;SDS011;5116;52.318;4.644;2022-08-03T10:55:00;2.77;;;2.03;;
10150;SDS011;5116;52.318;4.644;2022-08-03T10:57:50;1.60;;;1.50;;
10150;SDS011;5116;52.318;4.644;2022-08-03T11:00:25;1.90;;;1.70;;
10150;SDS011;5116;52.318;4.644;2022-08-03T11:03:06;2.50;;;1.40;;
10150;SDS011;5116;52.318;4.644;2022-08-03T11:05:38;2.27;;;1.90;;
10150;SDS011;5116;52.318;4.644;2022-08-03T11:10:54;2.57;;;1.50;;
10150;SDS011;5116;52.318;4.644;2022-08-03T11:13:23;2.10;;;1.50;;
10150;SDS011;5116;52.318;4.644;2022-08-03T11:15:52;2.53;;;1.60;;
10150;SDS011;5116;52.318;4.644;2022-08-03T11:18:28;5.10;;;1.80;;
10150;SDS011;5116;52.318;4.644;2022-08-03T11:20:56;2.40;;;1.93;;
10150;SDS011;5116;52.318;4.644;2022-08-03T11:23:39;2.10;;;1.60;;
10150;SDS011;5116;52.318;4.644;2022-08-03T11:26:27;1.97;;;1.77;;
10150;SDS011;5116;52.318;4.644;2022-08-03T11:29:10;4.40;;;1.73;;
10150;SDS011;5116;52.318;4.644;2022-08-03T11:31:42;3.10;;;1.80;;
10150;SDS011;5116;52.318;4.644;2022-08-03T11:34:18;2.90;;;1.60;;
10150;SDS011;5116;52.318;4.644;2022-08-03T11:39:38;2.13;;;1.80;;
10150;SDS011;5116;52.318;4.644;2022-08-03T11:45:05;1.93;;;1.60;;
10150;SDS011;5116;52.318;4.644;2022-08-03T11:47:35;3.53;;;1.60;;
10150;SDS011;5116;52.318;4.644;2022-08-03T11:50:16;2.33;;;1.67;;
10150;SDS011;5116;52.318;4.644;2022-08-03T11:52:45;1.77;;;1.63;;
10150;SDS011;5116;52.318;4.644;2022-08-03T11:55:14;1.93;;;1.70;;
10150;SDS011;5116;52.318;4.644;2022-08-03T11:57:41;1.77;;;1.50;;
10150;SDS011;5116;52.318;4.644;2022-08-03T12:00:31;1.70;;;1.60;;
10150;SDS011;5116;52.318;4.644;2022-08-03T12:03:00;1.80;;;1.70;;
10150;SDS011;5116;52.318;4.644;2022-08-03T12:05:31;2.87;;;1.83;;
10150;SDS011;5116;52.318;4.644;2022-08-03T12:07:59;1.77;;;1.67;;
10150;SDS011;5116;52.318;4.644;2022-08-03T12:10:29;2.23;;;1.87;;
10150;SDS011;5116;52.318;4.644;2022-08-03T12:12:58;3.73;;;1.50;;
10150;SDS011;5116;52.318;4.644;2022-08-03T12:15:29;1.70;;;1.60;;
10150;SDS011;5116;52.318;4.644;2022-08-03T12:17:59;1.50;;;1.40;;
10150;SDS011;5116;52.318;4.644;2022-08-03T12:20:27;2.03;;;1.67;;
10150;SDS011;5116;52.318;4.644;2022-08-03T12:23:04;2.20;;;1.70;;
10150;SDS011;5116;52.318;4.644;2022-08-03T12:25:32;2.20;;;1.70;;
10150;SDS011;5116;52.318;4.644;2022-08-03T12:28:09;2.17;;;1.77;;
10150;SDS011;5116;52.318;4.644;2022-08-03T12:30:59;1.90;;;1.73;;
10150;SDS011;5116;52.318;4.644;2022-08-03T12:33:27;1.70;;;1.60;;
10150;SDS011;5116;52.318;4.644;2022-08-03T12:36:02;2.20;;;1.53;;
10150;SDS011;5116;52.318;4.644;2022-08-03T12:38:30;2.63;;;1.70;;
10150;SDS011;5116;52.318;4.644;2022-08-03T12:41:05;2.13;;;1.70;;
10150;SDS011;5116;52.318;4.644;2022-08-03T12:43:34;1.77;;;1.53;;
10150;SDS011;5116;52.318;4.644;2022-08-03T12:46:14;3.70;;;1.80;;
10150;SDS011;5116;52.318;4.644;2022-08-03T12:51:25;4.00;;;1.70;;
10150;SDS011;5116;52.318;4.644;2022-08-03T12:53:53;2.60;;;1.43;;
10150;SDS011;5116;52.318;4.644;2022-08-03T12:56:21;1.60;;;1.50;;
10150;SDS011;5116;52.318;4.644;2022-08-03T12:58:48;1.73;;;1.60;;
10150;SDS011;5116;52.318;4.644;2022-08-03T13:01:16;2.70;;;1.60;;
10150;SDS011;5116;52.318;4.644;2022-08-03T13:03:46;2.73;;;1.53;;
10150;SDS011;5116;52.318;4.644;2022-08-03T13:06:22;1.83;;;1.40;;
10150;SDS011;5116;52.318;4.644;2022-08-03T13:09:11;1.77;;;1.40;;
10150;SDS011;5116;52.318;4.644;2022-08-03T13:11:37;3.27;;;1.70;;
10150;SDS011;5116;52.318;4.644;2022-08-03T13:14:24;1.40;;;1.30;;
10150;SDS011;5116;52.318;4.644;2022-08-03T13:16:52;1.80;;;1.70;;
10150;SDS011;5116;52.318;4.644;2022-08-03T13:19:19;2.37;;;1.70;;
10150;SDS011;5116;52.318;4.644;2022-08-03T13:21:46;2.17;;;1.97;;
10150;SDS011;5116;52.318;4.644;2022-08-03T13:24:30;2.00;;;1.80;;
10150;SDS011;5116;52.318;4.644;2022-08-03T13:26:58;2.07;;;1.30;;
10150;SDS011;5116;52.318;4.644;2022-08-03T13:29:25;2.07;;;1.50;;
10150;SDS011;5116;52.318;4.644;2022-08-03T13:31:53;2.00;;;1.50;;
10150;SDS011;5116;52.318;4.644;2022-08-03T13:34:20;2.10;;;1.43;;
10150;SDS011;5116;52.318;4.644;2022-08-03T13:36:49;3.00;;;1.87;;
10150;SDS011;5116;52.318;4.644;2022-08-03T13:39:35;2.37;;;1.43;;
10150;SDS011;5116;52.318;4.644;2022-08-03T13:42:22;1.63;;;1.53;;
10150;SDS011;5116;52.318;4.644;2022-08-03T13:44:50;2.00;;;1.90;;
10150;SDS011;5116;52.318;4.644;2022-08-03T13:47:17;2.73;;;1.50;;
10150;SDS011;5116;52.318;4.644;2022-08-03T13:49:45;1.60;;;1.50;;
10150;SDS011;5116;52.318;4.644;2022-08-03T13:52:26;2.20;;;1.77;;
10150;SDS011;5116;52.318;4.644;2022-08-03T13:54:53;1.60;;;1.50;;
10150;SDS011;5116;52.318;4.644;2022-08-03T13:57:21;3.30;;;1.80;;
10150;SDS011;5116;52.318;4.644;2022-08-03T14:00:08;1.97;;;1.77;;
10150;SDS011;5116;52.318;4.644;2022-08-03T14:02:36;2.17;;;1.47;;
10150;SDS011;5116;52.318;4.644;2022-08-03T14:05:03;1.60;;;1.50;;
10150;SDS011;5116;52.318;4.644;2022-08-03T14:07:31;2.53;;;1.40;;
10150;SDS011;5116;52.318;4.644;2022-08-03T14:09:58;2.87;;;1.50;;
10150;SDS011;5116;52.318;4.644;2022-08-03T14:12:27;3.07;;;1.63;;
10150;SDS011;5116;52.318;4.644;2022-08-03T14:14:54;2.07;;;1.30;;
10150;SDS011;5116;52.318;4.644;2022-08-03T14:17:26;1.60;;;1.50;;
10150;SDS011;5116;52.318;4.644;2022-08-03T14:20:07;1.73;;;1.40;;
10150;SDS011;5116;52.318;4.644;2022-08-03T14:22:55;2.43;;;1.37;;
10150;SDS011;5116;52.318;4.644;2022-08-03T14:25:22;8.60;;;1.67;;
10150;SDS011;5116;52.318;4.644;2022-08-03T14:27:50;2.47;;;1.23;;
10150;SDS011;5116;52.318;4.644;2022-08-03T14:30:17;3.40;;;1.53;;
10150;SDS011;5116;52.318;4.644;2022-08-03T14:32:44;1.80;;;1.20;;
10150;SDS011;5116;52.318;4.644;2022-08-03T14:35:12;3.63;;;1.33;;
10150;SDS011;5116;52.318;4.644;2022-08-03T14:37:39;1.30;;;1.20;;
10150;SDS011;5116;52.318;4.644;2022-08-03T14:40:07;1.33;;;1.00;;
10150;SDS011;5116;52.318;4.644;2022-08-03T14:42:34;2.37;;;1.40;;
10150;SDS011;5116;52.318;4.644;2022-08-03T14:45:02;1.30;;;1.20;;
10150;SDS011;5116;52.318;4.644;2022-08-03T14:47:45;2.40;;;1.40;;
10150;SDS011;5116;52.318;4.644;2022-08-03T14:50:32;1.97;;;1.37;;
10150;SDS011;5116;52.318;4.644;2022-08-03T14:53:10;2.00;;;1.40;;
10150;SDS011;5116;52.318;4.644;2022-08-03T14:55:38;3.53;;;1.10;;
10150;SDS011;5116;52.318;4.644;2022-08-03T14:58:16;0.93;;;0.87;;
10150;SDS011;5116;52.318;4.644;2022-08-03T15:00:47;1.33;;;1.20;;
10150;SDS011;5116;52.318;4.644;2022-08-03T15:03:15;1.47;;;1.20;;
10150;SDS011;5116;52.318;4.644;2022-08-03T15:05:45;1.20;;;0.93;;
10150;SDS011;5116;52.318;4.644;2022-08-03T15:08:13;1.73;;;1.10;;
10150;SDS011;5116;52.318;4.644;2022-08-03T15:10:40;2.20;;;1.20;;
10150;SDS011;5116;52.318;4.644;2022-08-03T15:13:10;1.20;;;0.83;;
10150;SDS011;5116;52.318;4.644;2022-08-03T15:15:37;1.30;;;1.20;;
10150;SDS011;5116;52.318;4.644;2022-08-03T15:18:04;2.00;;;1.20;;
10150;SDS011;5116;52.318;4.644;2022-08-03T15:20:32;2.77;;;1.43;;
10150;SDS011;5116;52.318;4.644;2022-08-03T15:23:15;1.70;;;1.13;;
10150;SDS011;5116;52.318;4.644;2022-08-03T15:25:43;1.23;;;1.10;;
10150;SDS011;5116;52.318;4.644;2022-08-03T15:28:31;2.20;;;1.20;;
10150;SDS011;5116;52.318;4.644;2022-08-03T15:30:59;1.40;;;1.30;;
10150;SDS011;5116;52.318;4.644;2022-08-03T15:33:27;1.80;;;1.20;;
10150;SDS011;5116;52.318;4.644;2022-08-03T15:35:55;1.77;;;1.40;;
10150;SDS011;5116;52.318;4.644;2022-08-03T15:38:22;0.97;;;0.97;;
10150;SDS011;5116;52.318;4.644;2022-08-03T15:40:52;1.17;;;1.07;;
10150;SDS011;5116;52.318;4.644;2022-08-03T15:43:24;2.43;;;1.47;;
10150;SDS011;5116;52.318;4.644;2022-08-03T15:45:51;1.70;;;1.20;;
10150;SDS011;5116;52.318;4.644;2022-08-03T15:48:39;1.30;;;1.20;;